Rand, CO (80473)

11:34 PM MDT on October 24, 2014 (GMT -0600)
RAWS GUNSIGHT CO US | Change Station
CLOSE
Current Station
Personal Weather Station
Location: Kremmling, CO
Elevation: 8419 ft
Nearby Weather Stations

Elev 8419 ft 40.21 °N, 106.33 °W | Updated 48 minutes ago

Clear
Clear
44 °F
Feels Like 44 °F
N
1
Wind Variable Wind from NE
Gusts 8.0 mph

Today
High -- | Low -- °F
--% Chance of Precip.
Yesterday
High -- | Low -- °F
Precip. -- in
7:25 AM 6:11 PM
New Moon, 2% visible
Pressure 30.40 in
Visibility 10.0 miles
Clouds Clear
Windchill 44 °F
Dew Point 13 °F
Humidity 28%
Rainfall 0.00 in
Snow Depth 0 in , 1 in , 1 in
UV 0 out of 12
Pollen 3.20 out of 12
Air Quality Not available.
Flu Activity Sporadic
METAR K33V 250515Z AUTO 17009KT 10SM CLR 10/M08 A3040 RMK AO2

More Conditions Fewer Conditions

Pressure 30.40 in
Visibility 10.0 miles
Clouds Clear
Windchill 44 °F
Dew Point 13 °F
Humidity 28%
Rainfall 0.00 in
Snow Depth 0 in , 1 in , 1 in
UV 0 out of 12
Pollen 3.20 out of 12
Air Quality Not available.
Flu Activity Sporadic
METAR K33V 250515Z AUTO 17009KT 10SM CLR 10/M08 A3040 RMK AO2

More Conditions Fewer Conditions

10-Day Weather Forecast

Almanac

Astronomy

Oct. 24, 2014 Rise Set
Actual Time 7:25 AM MDT 6:11 PM MDT
Civil Twilight 6:57 AM MDT 6:39 PM MDT
Nautical Twilight 6:25 AM MDT 7:11 PM MDT
Astronomical Twilight 5:54 AM MDT 7:42 PM MDT
Moon 8:07 AM MDT (10/24) 6:53 PM MDT (10/24)
Length of Visible Light 11h 41m
Length of Day
10h 46m
Tomorrow will be 2m 29s shorter.
New Moon, 2% of the Moon is Illuminated
Oct 25
New Moon
Oct 30
First Quarter
Nov 6
Full
Nov 14
Last Quarter
Nov 22
New

Yesterday's Extremes

State Highs State Lows

Community

WunderPhotos

Upload Photos

1,764,785 photos uploaded!

Nearby

Snow Depth

Station Depth Elevation
Willow Creek Pass 0 in 9540 ft
Arapaho Ridge 1 in 10960 ft
Never Summer 1 in 10280 ft
Joe Wright 0 in 10120 ft
Phantom Valley 0 in 9030 ft

Earthquake Activity

City Distance Mag. Time & Date
No recent earthquake activity has been reported nearby.
Minimum magnitude displayed is 2.5.

Coastal Water Temperatures

Place Temperature
No Stations Reporting

Nearby Weather Stations